sensor_id;sensor_type;location;lat;lon;timestamp;P1;durP1;ratioP1;P2;durP2;ratioP2
53269;SDS011;39159;45.634;9.420;2023-11-22T00:02:24;27.67;;;16.45;;
53269;SDS011;39159;45.634;9.420;2023-11-22T00:04:53;29.20;;;16.38;;
53269;SDS011;39159;45.634;9.420;2023-11-22T00:07:19;30.48;;;17.50;;
53269;SDS011;39159;45.634;9.420;2023-11-22T00:09:45;28.77;;;15.63;;
53269;SDS011;39159;45.634;9.420;2023-11-22T00:12:12;34.70;;;16.75;;
53269;SDS011;39159;45.634;9.420;2023-11-22T00:14:38;28.67;;;16.38;;
53269;SDS011;39159;45.634;9.420;2023-11-22T00:17:04;26.85;;;15.98;;
53269;SDS011;39159;45.634;9.420;2023-11-22T00:19:30;27.02;;;16.30;;
53269;SDS011;39159;45.634;9.420;2023-11-22T00:21:56;29.25;;;15.50;;
53269;SDS011;39159;45.634;9.420;2023-11-22T00:24:21;27.25;;;16.25;;
53269;SDS011;39159;45.634;9.420;2023-11-22T00:26:47;27.92;;;14.95;;
53269;SDS011;39159;45.634;9.420;2023-11-22T00:29:12;25.42;;;15.80;;
53269;SDS011;39159;45.634;9.420;2023-11-22T00:31:37;25.65;;;15.45;;
53269;SDS011;39159;45.634;9.420;2023-11-22T00:34:03;27.48;;;14.70;;
53269;SDS011;39159;45.634;9.420;2023-11-22T00:36:28;28.10;;;15.20;;
53269;SDS011;39159;45.634;9.420;2023-11-22T00:38:54;26.55;;;15.00;;
53269;SDS011;39159;45.634;9.420;2023-11-22T00:41:19;28.85;;;15.30;;
53269;SDS011;39159;45.634;9.420;2023-11-22T00:43:45;25.00;;;14.27;;
53269;SDS011;39159;45.634;9.420;2023-11-22T00:46:11;25.30;;;13.98;;
53269;SDS011;39159;45.634;9.420;2023-11-22T00:48:36;25.48;;;14.35;;
53269;SDS011;39159;45.634;9.420;2023-11-22T00:51:02;25.25;;;15.00;;
53269;SDS011;39159;45.634;9.420;2023-11-22T00:53:33;24.73;;;14.90;;
53269;SDS011;39159;45.634;9.420;2023-11-22T00:55:59;24.67;;;15.30;;
53269;SDS011;39159;45.634;9.420;2023-11-22T00:58:24;25.52;;;15.30;;
53269;SDS011;39159;45.634;9.420;2023-11-22T01:00:50;28.35;;;15.63;;
53269;SDS011;39159;45.634;9.420;2023-11-22T01:03:15;27.42;;;15.27;;
53269;SDS011;39159;45.634;9.420;2023-11-22T01:05:41;25.17;;;14.82;;
53269;SDS011;39159;45.634;9.420;2023-11-22T01:08:07;23.92;;;14.48;;
53269;SDS011;39159;45.634;9.420;2023-11-22T01:10:32;24.00;;;13.50;;
53269;SDS011;39159;45.634;9.420;2023-11-22T01:12:58;30.55;;;14.98;;
53269;SDS011;39159;45.634;9.420;2023-11-22T01:15:23;24.30;;;14.15;;
53269;SDS011;39159;45.634;9.420;2023-11-22T01:17:49;23.92;;;13.73;;
53269;SDS011;39159;45.634;9.420;2023-11-22T01:20:15;23.73;;;13.23;;
53269;SDS011;39159;45.634;9.420;2023-11-22T01:22:40;23.52;;;15.02;;
53269;SDS011;39159;45.634;9.420;2023-11-22T01:25:07;25.77;;;14.80;;
53269;SDS011;39159;45.634;9.420;2023-11-22T01:27:33;27.08;;;14.35;;
53269;SDS011;39159;45.634;9.420;2023-11-22T01:29:58;24.42;;;14.02;;
53269;SDS011;39159;45.634;9.420;2023-11-22T01:32:23;26.40;;;15.55;;
53269;SDS011;39159;45.634;9.420;2023-11-22T01:34:49;26.90;;;15.43;;
53269;SDS011;39159;45.634;9.420;2023-11-22T01:37:14;22.45;;;13.93;;
53269;SDS011;39159;45.634;9.420;2023-11-22T01:39:40;22.70;;;14.15;;
53269;SDS011;39159;45.634;9.420;2023-11-22T01:42:08;25.73;;;14.05;;
53269;SDS011;39159;45.634;9.420;2023-11-22T01:44:34;27.50;;;14.23;;
53269;SDS011;39159;45.634;9.420;2023-11-22T01:46:59;23.73;;;14.00;;
53269;SDS011;39159;45.634;9.420;2023-11-22T01:49:25;25.08;;;13.82;;
53269;SDS011;39159;45.634;9.420;2023-11-22T01:51:50;25.40;;;14.18;;
53269;SDS011;39159;45.634;9.420;2023-11-22T01:54:16;24.30;;;13.68;;
53269;SDS011;39159;45.634;9.420;2023-11-22T01:56:45;27.48;;;13.90;;
53269;SDS011;39159;45.634;9.420;2023-11-22T01:59:10;21.55;;;12.80;;
53269;SDS011;39159;45.634;9.420;2023-11-22T02:01:38;22.55;;;13.63;;
53269;SDS011;39159;45.634;9.420;2023-11-22T02:04:03;21.70;;;12.88;;
53269;SDS011;39159;45.634;9.420;2023-11-22T02:06:29;24.05;;;13.20;;
53269;SDS011;39159;45.634;9.420;2023-11-22T02:08:56;21.52;;;12.85;;
53269;SDS011;39159;45.634;9.420;2023-11-22T02:11:22;23.35;;;13.60;;
53269;SDS011;39159;45.634;9.420;2023-11-22T02:13:50;21.98;;;12.77;;
53269;SDS011;39159;45.634;9.420;2023-11-22T02:16:16;24.35;;;13.05;;
53269;SDS011;39159;45.634;9.420;2023-11-22T02:18:43;21.55;;;12.93;;
53269;SDS011;39159;45.634;9.420;2023-11-22T02:21:10;22.42;;;12.77;;
53269;SDS011;39159;45.634;9.420;2023-11-22T02:23:36;24.77;;;14.48;;
53269;SDS011;39159;45.634;9.420;2023-11-22T02:26:01;28.48;;;15.45;;
53269;SDS011;39159;45.634;9.420;2023-11-22T02:28:27;29.50;;;15.52;;
53269;SDS011;39159;45.634;9.420;2023-11-22T02:30:52;27.73;;;13.88;;
53269;SDS011;39159;45.634;9.420;2023-11-22T02:33:19;22.58;;;12.60;;
53269;SDS011;39159;45.634;9.420;2023-11-22T02:35:45;23.05;;;12.23;;
53269;SDS011;39159;45.634;9.420;2023-11-22T02:38:11;22.42;;;12.65;;
53269;SDS011;39159;45.634;9.420;2023-11-22T02:40:36;23.15;;;13.43;;
53269;SDS011;39159;45.634;9.420;2023-11-22T02:43:02;22.83;;;13.10;;
53269;SDS011;39159;45.634;9.420;2023-11-22T02:45:32;21.55;;;13.05;;
53269;SDS011;39159;45.634;9.420;2023-11-22T02:47:57;22.40;;;14.43;;
53269;SDS011;39159;45.634;9.420;2023-11-22T02:50:24;25.63;;;13.35;;
53269;SDS011;39159;45.634;9.420;2023-11-22T02:52:50;27.15;;;14.32;;
53269;SDS011;39159;45.634;9.420;2023-11-22T02:55:16;26.05;;;15.52;;
53269;SDS011;39159;45.634;9.420;2023-11-22T02:57:41;29.20;;;15.80;;
53269;SDS011;39159;45.634;9.420;2023-11-22T03:00:07;44.17;;;18.67;;
53269;SDS011;39159;45.634;9.420;2023-11-22T03:02:34;28.20;;;16.13;;
53269;SDS011;39159;45.634;9.420;2023-11-22T03:04:59;30.23;;;15.57;;
53269;SDS011;39159;45.634;9.420;2023-11-22T03:07:25;30.75;;;15.82;;
53269;SDS011;39159;45.634;9.420;2023-11-22T03:09:51;26.45;;;15.23;;
53269;SDS011;39159;45.634;9.420;2023-11-22T03:12:18;26.40;;;15.20;;
53269;SDS011;39159;45.634;9.420;2023-11-22T03:14:45;26.00;;;14.65;;
53269;SDS011;39159;45.634;9.420;2023-11-22T03:17:10;27.58;;;15.60;;
53269;SDS011;39159;45.634;9.420;2023-11-22T03:19:36;28.60;;;15.52;;
53269;SDS011;39159;45.634;9.420;2023-11-22T03:22:01;26.17;;;14.68;;
53269;SDS011;39159;45.634;9.420;2023-11-22T03:24:30;29.02;;;14.45;;
53269;SDS011;39159;45.634;9.420;2023-11-22T03:26:55;27.10;;;14.57;;
53269;SDS011;39159;45.634;9.420;2023-11-22T03:29:24;24.73;;;14.52;;
53269;SDS011;39159;45.634;9.420;2023-11-22T03:31:50;27.38;;;15.15;;
53269;SDS011;39159;45.634;9.420;2023-11-22T03:34:15;28.42;;;15.60;;
53269;SDS011;39159;45.634;9.420;2023-11-22T03:36:41;31.50;;;16.13;;
53269;SDS011;39159;45.634;9.420;2023-11-22T03:39:06;35.17;;;18.10;;
53269;SDS011;39159;45.634;9.420;2023-11-22T03:41:32;28.70;;;17.90;;
53269;SDS011;39159;45.634;9.420;2023-11-22T03:43:57;31.95;;;17.13;;
53269;SDS011;39159;45.634;9.420;2023-11-22T03:46:22;29.08;;;16.45;;
53269;SDS011;39159;45.634;9.420;2023-11-22T03:48:48;27.92;;;16.80;;
53269;SDS011;39159;45.634;9.420;2023-11-22T03:51:13;28.80;;;17.38;;
53269;SDS011;39159;45.634;9.420;2023-11-22T03:53:38;26.50;;;16.00;;
53269;SDS011;39159;45.634;9.420;2023-11-22T03:56:04;26.63;;;15.15;;
53269;SDS011;39159;45.634;9.420;2023-11-22T03:58:30;24.33;;;14.30;;
53269;SDS011;39159;45.634;9.420;2023-11-22T04:00:55;24.98;;;14.48;;
53269;SDS011;39159;45.634;9.420;2023-11-22T04:03:21;23.02;;;12.52;;
53269;SDS011;39159;45.634;9.420;2023-11-22T04:05:47;22.08;;;12.73;;
53269;SDS011;39159;45.634;9.420;2023-11-22T04:08:13;22.80;;;12.35;;
53269;SDS011;39159;45.634;9.420;2023-11-22T04:10:38;17.77;;;10.68;;
53269;SDS011;39159;45.634;9.420;2023-11-22T04:13:03;20.83;;;10.93;;
53269;SDS011;39159;45.634;9.420;2023-11-22T04:15:29;21.70;;;11.50;;
53269;SDS011;39159;45.634;9.420;2023-11-22T04:17:54;17.75;;;10.48;;
53269;SDS011;39159;45.634;9.420;2023-11-22T04:20:20;18.70;;;10.68;;
53269;SDS011;39159;45.634;9.420;2023-11-22T04:22:45;18.02;;;10.13;;
53269;SDS011;39159;45.634;9.420;2023-11-22T04:25:11;18.05;;;10.15;;
53269;SDS011;39159;45.634;9.420;2023-11-22T04:27:40;19.23;;;9.43;;
53269;SDS011;39159;45.634;9.420;2023-11-22T04:30:06;18.23;;;10.05;;
53269;SDS011;39159;45.634;9.420;2023-11-22T04:32:39;16.98;;;9.80;;
53269;SDS011;39159;45.634;9.420;2023-11-22T04:35:05;16.40;;;9.05;;
53269;SDS011;39159;45.634;9.420;2023-11-22T04:37:31;18.10;;;9.15;;
53269;SDS011;39159;45.634;9.420;2023-11-22T04:39:57;14.32;;;8.88;;
53269;SDS011;39159;45.634;9.420;2023-11-22T04:42:23;17.15;;;9.20;;
53269;SDS011;39159;45.634;9.420;2023-11-22T04:44:49;17.02;;;9.35;;
53269;SDS011;39159;45.634;9.420;2023-11-22T04:47:14;18.95;;;10.02;;
53269;SDS011;39159;45.634;9.420;2023-11-22T04:49:40;15.80;;;8.63;;
53269;SDS011;39159;45.634;9.420;2023-11-22T04:52:05;15.57;;;8.73;;
53269;SDS011;39159;45.634;9.420;2023-11-22T04:54:31;15.98;;;9.20;;
53269;SDS011;39159;45.634;9.420;2023-11-22T04:56:57;15.25;;;8.90;;
53269;SDS011;39159;45.634;9.420;2023-11-22T04:59:23;17.00;;;8.88;;
53269;SDS011;39159;45.634;9.420;2023-11-22T05:01:48;15.05;;;8.50;;
53269;SDS011;39159;45.634;9.420;2023-11-22T05:04:14;12.88;;;8.85;;
53269;SDS011;39159;45.634;9.420;2023-11-22T05:06:39;18.55;;;7.88;;
53269;SDS011;39159;45.634;9.420;2023-11-22T05:09:05;14.32;;;8.68;;
53269;SDS011;39159;45.634;9.420;2023-11-22T05:11:30;16.13;;;8.73;;
53269;SDS011;39159;45.634;9.420;2023-11-22T05:13:57;19.35;;;10.23;;
53269;SDS011;39159;45.634;9.420;2023-11-22T05:16:22;18.73;;;10.73;;
53269;SDS011;39159;45.634;9.420;2023-11-22T05:18:48;18.35;;;9.20;;
53269;SDS011;39159;45.634;9.420;2023-11-22T05:21:14;18.67;;;9.80;;
53269;SDS011;39159;45.634;9.420;2023-11-22T05:23:40;16.23;;;9.27;;
53269;SDS011;39159;45.634;9.420;2023-11-22T05:26:05;19.48;;;8.95;;
53269;SDS011;39159;45.634;9.420;2023-11-22T05:28:31;13.85;;;8.45;;
53269;SDS011;39159;45.634;9.420;2023-11-22T05:30:57;16.40;;;8.68;;
53269;SDS011;39159;45.634;9.420;2023-11-22T05:33:22;15.95;;;8.07;;
53269;SDS011;39159;45.634;9.420;2023-11-22T05:35:48;13.23;;;7.18;;
53269;SDS011;39159;45.634;9.420;2023-11-22T05:38:14;11.95;;;7.40;;
53269;SDS011;39159;45.634;9.420;2023-11-22T05:40:39;14.27;;;6.95;;
53269;SDS011;39159;45.634;9.420;2023-11-22T05:43:06;14.57;;;7.90;;
53269;SDS011;39159;45.634;9.420;2023-11-22T05:45:33;13.55;;;7.63;;
53269;SDS011;39159;45.634;9.420;2023-11-22T05:47:59;13.10;;;7.68;;
53269;SDS011;39159;45.634;9.420;2023-11-22T05:50:24;14.73;;;8.02;;
53269;SDS011;39159;45.634;9.420;2023-11-22T05:52:49;17.65;;;9.55;;
53269;SDS011;39159;45.634;9.420;2023-11-22T05:55:15;20.10;;;10.80;;
53269;SDS011;39159;45.634;9.420;2023-11-22T05:57:40;17.63;;;10.13;;
53269;SDS011;39159;45.634;9.420;2023-11-22T06:00:07;17.40;;;10.02;;
53269;SDS011;39159;45.634;9.420;2023-11-22T06:02:33;16.50;;;9.32;;
53269;SDS011;39159;45.634;9.420;2023-11-22T06:04:58;17.05;;;9.82;;
53269;SDS011;39159;45.634;9.420;2023-11-22T06:07:25;14.98;;;8.77;;
53269;SDS011;39159;45.634;9.420;2023-11-22T06:09:51;13.32;;;7.75;;
53269;SDS011;39159;45.634;9.420;2023-11-22T06:12:16;11.98;;;7.00;;
53269;SDS011;39159;45.634;9.420;2023-11-22T06:14:42;14.00;;;7.72;;
53269;SDS011;39159;45.634;9.420;2023-11-22T06:17:07;14.23;;;6.75;;
53269;SDS011;39159;45.634;9.420;2023-11-22T06:19:33;13.55;;;7.18;;
53269;SDS011;39159;45.634;9.420;2023-11-22T06:21:58;14.15;;;7.28;;
53269;SDS011;39159;45.634;9.420;2023-11-22T06:24:26;12.30;;;6.90;;
53269;SDS011;39159;45.634;9.420;2023-11-22T06:26:52;14.10;;;8.05;;
53269;SDS011;39159;45.634;9.420;2023-11-22T06:29:17;13.57;;;7.63;;
53269;SDS011;39159;45.634;9.420;2023-11-22T06:31:42;14.93;;;7.85;;
53269;SDS011;39159;45.634;9.420;2023-11-22T06:34:08;14.10;;;7.63;;
53269;SDS011;39159;45.634;9.420;2023-11-22T06:36:33;16.55;;;8.90;;
53269;SDS011;39159;45.634;9.420;2023-11-22T06:38:59;17.02;;;9.10;;
53269;SDS011;39159;45.634;9.420;2023-11-22T06:41:25;17.90;;;8.10;;
53269;SDS011;39159;45.634;9.420;2023-11-22T06:43:51;16.15;;;8.65;;
53269;SDS011;39159;45.634;9.420;2023-11-22T06:46:16;15.20;;;7.72;;
53269;SDS011;39159;45.634;9.420;2023-11-22T06:48:42;23.63;;;9.07;;
53269;SDS011;39159;45.634;9.420;2023-11-22T06:51:09;19.42;;;9.02;;
53269;SDS011;39159;45.634;9.420;2023-11-22T06:53:34;18.08;;;8.48;;
53269;SDS011;39159;45.634;9.420;2023-11-22T06:56:00;19.25;;;8.93;;
53269;SDS011;39159;45.634;9.420;2023-11-22T06:58:26;17.90;;;9.18;;
53269;SDS011;39159;45.634;9.420;2023-11-22T07:00:51;15.30;;;8.93;;
53269;SDS011;39159;45.634;9.420;2023-11-22T07:03:17;17.00;;;8.68;;
53269;SDS011;39159;45.634;9.420;2023-11-22T07:05:42;15.60;;;9.18;;
53269;SDS011;39159;45.634;9.420;2023-11-22T07:08:08;20.40;;;8.90;;
53269;SDS011;39159;45.634;9.420;2023-11-22T07:10:33;20.10;;;8.93;;
53269;SDS011;39159;45.634;9.420;2023-11-22T07:12:59;19.42;;;9.70;;
53269;SDS011;39159;45.634;9.420;2023-11-22T07:15:26;16.58;;;8.60;;
53269;SDS011;39159;45.634;9.420;2023-11-22T07:17:52;18.10;;;9.27;;
53269;SDS011;39159;45.634;9.420;2023-11-22T07:20:17;18.38;;;8.75;;
53269;SDS011;39159;45.634;9.420;2023-11-22T07:22:43;18.40;;;8.55;;
53269;SDS011;39159;45.634;9.420;2023-11-22T07:25:08;19.42;;;9.35;;
53269;SDS011;39159;45.634;9.420;2023-11-22T07:27:43;17.13;;;9.23;;
53269;SDS011;39159;45.634;9.420;2023-11-22T07:30:15;17.58;;;8.88;;
53269;SDS011;39159;45.634;9.420;2023-11-22T07:32:41;17.85;;;8.70;;
53269;SDS011;39159;45.634;9.420;2023-11-22T07:35:09;20.15;;;8.90;;
53269;SDS011;39159;45.634;9.420;2023-11-22T07:37:35;16.75;;;7.68;;
53269;SDS011;39159;45.634;9.420;2023-11-22T07:40:09;15.68;;;7.80;;
53269;SDS011;39159;45.634;9.420;2023-11-22T07:42:38;16.10;;;8.32;;
53269;SDS011;39159;45.634;9.420;2023-11-22T07:45:03;14.23;;;8.13;;
53269;SDS011;39159;45.634;9.420;2023-11-22T07:47:29;14.85;;;8.20;;
53269;SDS011;39159;45.634;9.420;2023-11-22T07:49:55;14.23;;;7.80;;
53269;SDS011;39159;45.634;9.420;2023-11-22T07:52:21;12.00;;;7.78;;
53269;SDS011;39159;45.634;9.420;2023-11-22T07:54:46;14.40;;;8.32;;
53269;SDS011;39159;45.634;9.420;2023-11-22T07:57:12;11.93;;;7.50;;
53269;SDS011;39159;45.634;9.420;2023-11-22T07:59:38;14.07;;;7.47;;
53269;SDS011;39159;45.634;9.420;2023-11-22T08:02:05;12.98;;;7.60;;
53269;SDS011;39159;45.634;9.420;2023-11-22T08:04:36;16.45;;;8.40;;
53269;SDS011;39159;45.634;9.420;2023-11-22T08:07:02;12.07;;;6.95;;
53269;SDS011;39159;45.634;9.420;2023-11-22T08:09:28;12.95;;;7.28;;
53269;SDS011;39159;45.634;9.420;2023-11-22T08:11:57;11.88;;;7.15;;
53269;SDS011;39159;45.634;9.420;2023-11-22T08:14:24;13.00;;;7.28;;
53269;SDS011;39159;45.634;9.420;2023-11-22T08:16:52;11.55;;;7.07;;
53269;SDS011;39159;45.634;9.420;2023-11-22T08:19:18;10.80;;;6.85;;
53269;SDS011;39159;45.634;9.420;2023-11-22T08:21:43;13.00;;;7.75;;
53269;SDS011;39159;45.634;9.420;2023-11-22T08:24:09;11.20;;;6.80;;
53269;SDS011;39159;45.634;9.420;2023-11-22T08:26:34;10.27;;;6.63;;
53269;SDS011;39159;45.634;9.420;2023-11-22T08:29:00;11.15;;;6.38;;
53269;SDS011;39159;45.634;9.420;2023-11-22T08:31:26;11.20;;;6.82;;
53269;SDS011;39159;45.634;9.420;2023-11-22T08:33:51;10.38;;;6.20;;
53269;SDS011;39159;45.634;9.420;2023-11-22T08:36:17;11.23;;;6.07;;
53269;SDS011;39159;45.634;9.420;2023-11-22T08:38:43;12.00;;;6.10;;
53269;SDS011;39159;45.634;9.420;2023-11-22T08:41:09;9.57;;;6.20;;
53269;SDS011;39159;45.634;9.420;2023-11-22T08:43:38;11.80;;;6.32;;
53269;SDS011;39159;45.634;9.420;2023-11-22T08:46:04;11.18;;;6.03;;
53269;SDS011;39159;45.634;9.420;2023-11-22T08:48:30;10.93;;;5.47;;
53269;SDS011;39159;45.634;9.420;2023-11-22T08:50:55;9.43;;;5.22;;
53269;SDS011;39159;45.634;9.420;2023-11-22T08:53:22;9.60;;;5.13;;
53269;SDS011;39159;45.634;9.420;2023-11-22T08:55:47;6.75;;;4.80;;
53269;SDS011;39159;45.634;9.420;2023-11-22T08:58:13;7.50;;;4.50;;
53269;SDS011;39159;45.634;9.420;2023-11-22T09:00:39;6.43;;;4.55;;
53269;SDS011;39159;45.634;9.420;2023-11-22T09:03:06;8.48;;;4.60;;
53269;SDS011;39159;45.634;9.420;2023-11-22T09:05:32;6.75;;;3.53;;
53269;SDS011;39159;45.634;9.420;2023-11-22T09:07:58;6.75;;;3.55;;
53269;SDS011;39159;45.634;9.420;2023-11-22T09:10:24;7.30;;;2.95;;
53269;SDS011;39159;45.634;9.420;2023-11-22T09:12:49;7.53;;;3.13;;
53269;SDS011;39159;45.634;9.420;2023-11-22T09:15:16;5.43;;;3.00;;
53269;SDS011;39159;45.634;9.420;2023-11-22T09:17:43;3.50;;;2.40;;
53269;SDS011;39159;45.634;9.420;2023-11-22T09:20:11;3.35;;;2.45;;
53269;SDS011;39159;45.634;9.420;2023-11-22T09:25:18;4.40;;;2.20;;
53269;SDS011;39159;45.634;9.420;2023-11-22T09:27:46;2.67;;;2.08;;
53269;SDS011;39159;45.634;9.420;2023-11-22T09:30:22;3.72;;;2.33;;
53269;SDS011;39159;45.634;9.420;2023-11-22T09:35:26;3.17;;;2.13;;
53269;SDS011;39159;45.634;9.420;2023-11-22T09:37:54;2.67;;;2.40;;
53269;SDS011;39159;45.634;9.420;2023-11-22T09:40:20;2.63;;;2.10;;
53269;SDS011;39159;45.634;9.420;2023-11-22T09:42:47;4.50;;;2.20;;
53269;SDS011;39159;45.634;9.420;2023-11-22T09:45:16;4.07;;;2.35;;
53269;SDS011;39159;45.634;9.420;2023-11-22T09:47:45;4.00;;;2.08;;
53269;SDS011;39159;45.634;9.420;2023-11-22T09:50:17;3.83;;;2.15;;
53269;SDS011;39159;45.634;9.420;2023-11-22T09:52:49;3.35;;;2.20;;
53269;SDS011;39159;45.634;9.420;2023-11-22T09:55:16;5.90;;;2.22;;
53269;SDS011;39159;45.634;9.420;2023-11-22T09:57:44;4.43;;;2.20;;
53269;SDS011;39159;45.634;9.420;2023-11-22T10:00:09;3.70;;;2.33;;
53269;SDS011;39159;45.634;9.420;2023-11-22T10:02:39;3.13;;;2.15;;
53269;SDS011;39159;45.634;9.420;2023-11-22T10:05:06;3.97;;;2.25;;
53269;SDS011;39159;45.634;9.420;2023-11-22T10:07:33;2.15;;;1.77;;
53269;SDS011;39159;45.634;9.420;2023-11-22T10:10:00;8.98;;;3.38;;
53269;SDS011;39159;45.634;9.420;2023-11-22T10:12:30;5.35;;;3.53;;
53269;SDS011;39159;45.634;9.420;2023-11-22T10:14:55;6.18;;;2.80;;
53269;SDS011;39159;45.634;9.420;2023-11-22T10:17:38;3.38;;;2.42;;
53269;SDS011;39159;45.634;9.420;2023-11-22T10:20:04;3.83;;;2.47;;
53269;SDS011;39159;45.634;9.420;2023-11-22T10:22:42;4.60;;;2.30;;
53269;SDS011;39159;45.634;9.420;2023-11-22T10:25:09;4.53;;;2.50;;
53269;SDS011;39159;45.634;9.420;2023-11-22T10:27:35;7.32;;;2.45;;
53269;SDS011;39159;45.634;9.420;2023-11-22T10:30:03;4.53;;;2.30;;
53269;SDS011;39159;45.634;9.420;2023-11-22T10:32:29;6.45;;;2.40;;
53269;SDS011;39159;45.634;9.420;2023-11-22T10:34:55;4.28;;;2.50;;
53269;SDS011;39159;45.634;9.420;2023-11-22T10:37:20;5.88;;;3.22;;
53269;SDS011;39159;45.634;9.420;2023-11-22T10:39:52;2.97;;;2.60;;
53269;SDS011;39159;45.634;9.420;2023-11-22T10:42:17;4.93;;;2.45;;
53269;SDS011;39159;45.634;9.420;2023-11-22T10:44:44;5.18;;;2.45;;
53269;SDS011;39159;45.634;9.420;2023-11-22T10:47:12;6.32;;;2.17;;
53269;SDS011;39159;45.634;9.420;2023-11-22T10:49:40;4.20;;;2.50;;
53269;SDS011;39159;45.634;9.420;2023-11-22T10:52:07;3.38;;;2.33;;
53269;SDS011;39159;45.634;9.420;2023-11-22T10:54:37;3.63;;;2.25;;
53269;SDS011;39159;45.634;9.420;2023-11-22T10:57:14;4.13;;;2.70;;
53269;SDS011;39159;45.634;9.420;2023-11-22T10:59:44;7.72;;;3.50;;
53269;SDS011;39159;45.634;9.420;2023-11-22T11:02:18;4.85;;;3.28;;
53269;SDS011;39159;45.634;9.420;2023-11-22T11:04:53;8.23;;;2.80;;
53269;SDS011;39159;45.634;9.420;2023-11-22T11:07:23;3.95;;;2.83;;
53269;SDS011;39159;45.634;9.420;2023-11-22T11:09:55;6.47;;;3.40;;
53269;SDS011;39159;45.634;9.420;2023-11-22T11:12:22;4.30;;;2.97;;
53269;SDS011;39159;45.634;9.420;2023-11-22T11:14:49;11.50;;;3.22;;
53269;SDS011;39159;45.634;9.420;2023-11-22T11:17:16;5.45;;;3.20;;
53269;SDS011;39159;45.634;9.420;2023-11-22T11:19:42;6.15;;;3.60;;
53269;SDS011;39159;45.634;9.420;2023-11-22T11:22:10;4.82;;;3.30;;
53269;SDS011;39159;45.634;9.420;2023-11-22T11:24:38;5.38;;;3.35;;
53269;SDS011;39159;45.634;9.420;2023-11-22T11:27:09;6.38;;;3.05;;
53269;SDS011;39159;45.634;9.420;2023-11-22T11:29:36;5.65;;;2.80;;
53269;SDS011;39159;45.634;9.420;2023-11-22T11:32:09;4.80;;;2.70;;
53269;SDS011;39159;45.634;9.420;2023-11-22T11:34:55;4.72;;;2.83;;
53269;SDS011;39159;45.634;9.420;2023-11-22T11:37:21;4.15;;;2.42;;
53269;SDS011;39159;45.634;9.420;2023-11-22T11:39:46;3.95;;;3.10;;
53269;SDS011;39159;45.634;9.420;2023-11-22T11:42:12;4.22;;;3.45;;
53269;SDS011;39159;45.634;9.420;2023-11-22T11:44:50;4.55;;;3.55;;
53269;SDS011;39159;45.634;9.420;2023-11-22T11:47:21;3.50;;;2.97;;
53269;SDS011;39159;45.634;9.420;2023-11-22T11:49:48;4.82;;;3.70;;
53269;SDS011;39159;45.634;9.420;2023-11-22T11:52:15;5.22;;;3.00;;
53269;SDS011;39159;45.634;9.420;2023-11-22T11:54:40;4.13;;;3.30;;
53269;SDS011;39159;45.634;9.420;2023-11-22T11:57:06;6.18;;;3.70;;
53269;SDS011;39159;45.634;9.420;2023-11-22T11:59:31;5.78;;;3.70;;
53269;SDS011;39159;45.634;9.420;2023-11-22T12:01:59;5.72;;;3.60;;
53269;SDS011;39159;45.634;9.420;2023-11-22T12:04:24;5.78;;;3.70;;
53269;SDS011;39159;45.634;9.420;2023-11-22T12:06:51;5.63;;;3.67;;
53269;SDS011;39159;45.634;9.420;2023-11-22T12:09:23;5.95;;;3.40;;
53269;SDS011;39159;45.634;9.420;2023-11-22T12:11:50;5.68;;;3.53;;
53269;SDS011;39159;45.634;9.420;2023-11-22T12:14:16;8.68;;;3.63;;
53269;SDS011;39159;45.634;9.420;2023-11-22T12:16:41;8.00;;;3.58;;
53269;SDS011;39159;45.634;9.420;2023-11-22T12:19:08;5.43;;;3.67;;
53269;SDS011;39159;45.634;9.420;2023-11-22T12:21:36;4.05;;;3.40;;
53269;SDS011;39159;45.634;9.420;2023-11-22T12:24:02;6.10;;;3.80;;
53269;SDS011;39159;45.634;9.420;2023-11-22T12:26:31;5.90;;;3.40;;
53269;SDS011;39159;45.634;9.420;2023-11-22T12:28:58;6.20;;;3.40;;
53269;SDS011;39159;45.634;9.420;2023-11-22T12:31:23;3.55;;;2.90;;
53269;SDS011;39159;45.634;9.420;2023-11-22T12:33:49;6.07;;;3.33;;
53269;SDS011;39159;45.634;9.420;2023-11-22T12:36:15;7.10;;;3.20;;
53269;SDS011;39159;45.634;9.420;2023-11-22T12:38:42;4.32;;;3.20;;
53269;SDS011;39159;45.634;9.420;2023-11-22T12:41:08;4.75;;;3.15;;
53269;SDS011;39159;45.634;9.420;2023-11-22T12:43:33;7.53;;;3.95;;
53269;SDS011;39159;45.634;9.420;2023-11-22T12:46:01;6.28;;;3.50;;
53269;SDS011;39159;45.634;9.420;2023-11-22T12:48:28;4.55;;;3.50;;
53269;SDS011;39159;45.634;9.420;2023-11-22T12:50:57;5.65;;;3.70;;
53269;SDS011;39159;45.634;9.420;2023-11-22T12:53:24;8.23;;;3.90;;
53269;SDS011;39159;45.634;9.420;2023-11-22T12:55:53;8.52;;;4.15;;
53269;SDS011;39159;45.634;9.420;2023-11-22T12:58:23;6.47;;;4.25;;
53269;SDS011;39159;45.634;9.420;2023-11-22T13:00:51;6.70;;;4.07;;
53269;SDS011;39159;45.634;9.420;2023-11-22T13:03:23;7.22;;;3.30;;
53269;SDS011;39159;45.634;9.420;2023-11-22T13:05:49;6.82;;;3.55;;
53269;SDS011;39159;45.634;9.420;2023-11-22T13:08:17;9.10;;;3.97;;
53269;SDS011;39159;45.634;9.420;2023-11-22T13:10:43;8.05;;;4.28;;
53269;SDS011;39159;45.634;9.420;2023-11-22T13:13:14;6.82;;;3.63;;
53269;SDS011;39159;45.634;9.420;2023-11-22T13:15:39;7.53;;;3.72;;
53269;SDS011;39159;45.634;9.420;2023-11-22T13:18:07;8.57;;;4.72;;
53269;SDS011;39159;45.634;9.420;2023-11-22T13:20:34;10.73;;;3.92;;
53269;SDS011;39159;45.634;9.420;2023-11-22T13:23:00;6.30;;;4.45;;
53269;SDS011;39159;45.634;9.420;2023-11-22T13:25:25;5.28;;;3.58;;
53269;SDS011;39159;45.634;9.420;2023-11-22T13:27:51;11.15;;;4.13;;
53269;SDS011;39159;45.634;9.420;2023-11-22T13:30:18;11.13;;;6.13;;
53269;SDS011;39159;45.634;9.420;2023-11-22T13:32:47;7.32;;;5.18;;
53269;SDS011;39159;45.634;9.420;2023-11-22T13:35:17;6.47;;;4.60;;
53269;SDS011;39159;45.634;9.420;2023-11-22T13:37:46;7.00;;;4.68;;
53269;SDS011;39159;45.634;9.420;2023-11-22T13:40:16;8.45;;;5.07;;
53269;SDS011;39159;45.634;9.420;2023-11-22T13:42:46;8.07;;;5.60;;
53269;SDS011;39159;45.634;9.420;2023-11-22T13:45:15;6.13;;;4.68;;
53269;SDS011;39159;45.634;9.420;2023-11-22T13:47:43;7.60;;;4.65;;
53269;SDS011;39159;45.634;9.420;2023-11-22T13:50:09;6.95;;;4.68;;
53269;SDS011;39159;45.634;9.420;2023-11-22T13:52:37;6.75;;;4.53;;
53269;SDS011;39159;45.634;9.420;2023-11-22T13:55:03;6.22;;;4.65;;
53269;SDS011;39159;45.634;9.420;2023-11-22T13:57:33;5.30;;;4.68;;
53269;SDS011;39159;45.634;9.420;2023-11-22T13:59:58;8.73;;;4.72;;
53269;SDS011;39159;45.634;9.420;2023-11-22T14:02:24;7.05;;;4.68;;
53269;SDS011;39159;45.634;9.420;2023-11-22T14:04:49;6.55;;;4.50;;
53269;SDS011;39159;45.634;9.420;2023-11-22T14:07:14;6.43;;;4.13;;
53269;SDS011;39159;45.634;9.420;2023-11-22T14:09:40;9.98;;;4.68;;
53269;SDS011;39159;45.634;9.420;2023-11-22T14:12:05;8.23;;;4.45;;
53269;SDS011;39159;45.634;9.420;2023-11-22T14:14:31;7.72;;;4.60;;
53269;SDS011;39159;45.634;9.420;2023-11-22T14:16:56;7.47;;;4.32;;
53269;SDS011;39159;45.634;9.420;2023-11-22T14:19:22;9.55;;;4.82;;
53269;SDS011;39159;45.634;9.420;2023-11-22T14:21:48;5.78;;;4.25;;
53269;SDS011;39159;45.634;9.420;2023-11-22T14:24:13;7.43;;;4.60;;
53269;SDS011;39159;45.634;9.420;2023-11-22T14:26:39;5.82;;;4.20;;
53269;SDS011;39159;45.634;9.420;2023-11-22T14:29:05;6.05;;;4.25;;
53269;SDS011;39159;45.634;9.420;2023-11-22T14:31:31;6.88;;;4.40;;
53269;SDS011;39159;45.634;9.420;2023-11-22T14:33:58;10.48;;;4.18;;
53269;SDS011;39159;45.634;9.420;2023-11-22T14:36:24;6.45;;;4.20;;
53269;SDS011;39159;45.634;9.420;2023-11-22T14:38:51;9.18;;;4.30;;